| time (UTC) | temp C | wind direction | speed KPH | gust KPH | rain 1hr cm | rain 24hr cm | rain mn cm | humidity % | barometer mb |
| 20260508142841 | 21 | 47 | 12.9 | 14.5 | 0.00 | 0.00 | 0.00 | 30 | 1014.2 |
| 20260508142338 | 22 | 45 | 9.7 | 12.9 | 0.00 | 0.00 | 0.00 | 29 | 1014.2 |
| 20260508141834 | 22 | 19 | 6.4 | 8.0 | 0.00 | 0.00 | 0.00 | 28 | 1014.2 |
| 20260508141332 | 21 | 35 | 6.4 | 6.4 | 0.00 | 0.00 | 0.00 | 29 | 1013.9 |
| 20260508140829 | 21 | 22 | 6.4 | 8.0 | 0.00 | 0.00 | 0.00 | 31 | 1013.8 |
| 20260508140326 | 21 | 55 | 6.4 | 6.4 | 0.00 | 0.00 | 0.00 | 31 | 1013.9 |
| 20260508135821 | 20 | 60 | 3.2 | 4.8 | 0.00 | 0.00 | 0.00 | 31 | 1013.8 |
| 20260508135318 | 20 | 74 | 3.2 | 4.8 | 0.00 | 0.00 | 0.00 | 32 | 1013.7 |
| 20260508134814 | 19 | 45 | 6.4 | 8.0 | 0.00 | 0.00 | 0.00 | 33 | 1013.6 |
| 20260508134311 | 19 | 34 | 6.4 | 6.4 | 0.00 | 0.00 | 0.00 | 33 | 1013.6 |
| 20260508133808 | 19 | 36 | 4.8 | 4.8 | 0.00 | 0.00 | 0.00 | 33 | 1013.5 |
| 20260508133306 | 18 | 41 | 3.2 | 4.8 | 0.00 | 0.00 | 0.00 | 34 | 1013.5 |
| 20260508132803 | 18 | 33 | 4.8 | 8.0 | 0.00 | 0.00 | 0.00 | 35 | 1013.4 |
| 20260508132300 | 17 | 44 | 6.4 | 8.0 | 0.00 | 0.00 | 0.00 | 36 | 1013.3 |
| 20260508131755 | 17 | 36 | 6.4 | 8.0 | 0.00 | 0.00 | 0.00 | 36 | 1013.6 |
| 20260508131252 | 17 | 32 | 4.8 | 4.8 | 0.00 | 0.00 | 0.00 | 35 | 1013.3 |
| 20260508130748 | 17 | 23 | 3.2 | 4.8 | 0.00 | 0.00 | 0.00 | 34 | 1013.1 |
| 20260508130246 | 18 | 38 | 4.8 | 6.4 | 0.00 | 0.00 | 0.00 | 35 | 1013.2 |
| 20260508125741 | 18 | 41 | 3.2 | 3.2 | 0.00 | 0.00 | 0.00 | 25 | 1013.1 |
| 20260508125238 | 19 | 39 | 0.0 | 4.8 | 0.00 | 0.00 | 0.00 | 23 | 1013.0 |
| 20260508124736 | 19 | 93 | 4.8 | 4.8 | 0.00 | 0.00 | 0.00 | 28 | 1012.9 |
| 20260508124233 | 18 | 114 | 3.2 | 4.8 | 0.00 | 0.00 | 0.00 | 28 | 1012.9 |
| 20260508123731 | 18 | 79 | 3.2 | 4.8 | 0.00 | 0.00 | 0.00 | 29 | 1012.7 |
| 20260508123229 | 19 | 74 | 3.2 | 6.4 | 0.00 | 0.00 | 0.00 | 28 | 1012.9 |
| 20260508122725 | 20 | 38 | 4.8 | 8.0 | 0.00 | 0.00 | 0.00 | 27 | 1012.9 |
| 20260508122222 | 20 | 38 | 4.8 | 6.4 | 0.00 | 0.00 | 0.00 | 24 | 1012.9 |
| 20260508121719 | 22 | 254 | 0.0 | 6.4 | 0.00 | 0.00 | 0.00 | 22 | 1012.8 |
| 20260508121218 | 22 | 256 | 4.8 | 6.4 | 0.00 | 0.00 | 0.00 | 23 | 1012.7 |
| 20260508120715 | 22 | 261 | 4.8 | 6.4 | 0.00 | 0.00 | 0.00 | 23 | 1012.7 |
| 20260508120213 | 22 | 267 | 4.8 | 6.4 | 0.00 | 0.00 | 0.00 | 22 | 1012.8 |
| 20260508115711 | 22 | 275 | 4.8 | 4.8 | 0.00 | 0.00 | 0.00 | 22 | 1012.5 |
| 20260508115207 | 23 | 277 | 4.8 | 4.8 | 0.00 | 0.00 | 0.00 | 22 | 1012.8 |
| 20260508114704 | 23 | 264 | 4.8 | 6.4 | 0.00 | 0.00 | 0.00 | 21 | 1012.9 |
| 20260508114201 | 23 | 254 | 6.4 | 6.4 | 0.00 | 0.00 | 0.00 | 21 | 1012.7 |
| 20260508113657 | 23 | 242 | 6.4 | 6.4 | 0.00 | 0.00 | 0.00 | 21 | 1012.5 |
| 20260508113156 | 23 | 258 | 6.4 | 6.4 | 0.00 | 0.00 | 0.00 | 21 | 1012.4 |
| 20260508112652 | 23 | 244 | 4.8 | 4.8 | 0.00 | 0.00 | 0.00 | 21 | 1012.4 |
| 20260508112149 | 23 | 241 | 4.8 | 6.4 | 0.00 | 0.00 | 0.00 | 21 | 1012.4 |
| 20260508111645 | 23 | 240 | 4.8 | 6.4 | 0.00 | 0.00 | 0.00 | 21 | 1012.5 |
| 20260508111143 | 22 | 240 | 4.8 | 6.4 | 0.00 | 0.00 | 0.00 | 21 | 1012.3 |
| 20260508110640 | 22 | 229 | 3.2 | 4.8 | 0.00 | 0.00 | 0.00 | 21 | 1012.4 |
| 20260508110137 | 22 | 233 | 1.6 | 3.2 | 0.00 | 0.00 | 0.00 | 21 | 1012.5 |
| 20260508105631 | 22 | 197 | 1.6 | 3.2 | 0.00 | 0.00 | 0.00 | 21 | 1012.3 |
| 20260508105128 | 22 | 252 | 1.6 | 3.2 | 0.00 | 0.00 | 0.00 | 21 | 1012.4 |
| 20260508104626 | 22 | 261 | 0.0 | 1.6 | 0.00 | 0.00 | 0.00 | 21 | 1012.4 |
| 20260508104122 | 23 | 196 | 3.2 | 3.2 | 0.00 | 0.00 | 0.00 | 20 | 1012.3 |
| 20260508103620 | 23 | 236 | 3.2 | 3.2 | 0.00 | 0.00 | 0.00 | 20 | 1012.4 |
| 20260508103117 | 23 | 292 | 4.8 | 6.4 | 0.00 | 0.00 | 0.00 | 20 | 1012.5 |
| 20260508102614 | 22 | 274 | 3.2 | 6.4 | 0.00 | 0.00 | 0.00 | 20 | 1012.1 |
| 20260508102112 | 23 | 323 | 6.4 | 11.3 | 0.00 | 0.00 | 0.00 | 20 | 1012.4 |
| 20260508101609 | 23 | 320 | 9.7 | 11.3 | 0.00 | 0.00 | 0.00 | 21 | 1012.3 |
| 20260508101106 | 23 | 252 | 6.4 | 8.0 | 0.00 | 0.00 | 0.00 | 20 | 1012.3 |
| 20260508100604 | 23 | 262 | 3.2 | 4.8 | 0.00 | 0.00 | 0.00 | 19 | 1012.2 |
| 20260508100101 | 23 | 284 | 4.8 | 4.8 | 0.00 | 0.00 | 0.00 | 20 | 1012.1 |
| 20260508095558 | 22 | 242 | 4.8 | 4.8 | 0.00 | 0.00 | 0.00 | 20 | 1012.1 |
| 20260508095054 | 23 | 296 | 3.2 | 4.8 | 0.00 | 0.00 | 0.00 | 20 | 1012.1 |
| 20260508094552 | 23 | 216 | 3.2 | 3.2 | 0.00 | 0.00 | 0.00 | 21 | 1012.0 |
| 20260508094049 | 22 | 209 | 1.6 | 3.2 | 0.00 | 0.00 | 0.00 | 21 | 1012.0 |
| 20260508093546 | 22 | 209 | 0.0 | 1.6 | 0.00 | 0.00 | 0.00 | 22 | 1012.1 |
| 20260508093043 | 22 | 314 | 1.6 | 3.2 | 0.00 | 0.00 | 0.00 | 23 | 1012.0 |
| 20260508092541 | 21 | 137 | 3.2 | 6.4 | 0.00 | 0.00 | 0.00 | 24 | 1012.0 |
| 20260508092040 | 22 | 168 | 9.7 | 9.7 | 0.00 | 0.00 | 0.00 | 24 | 1012.0 |
| 20260508091536 | 21 | 173 | 4.8 | 6.4 | 0.00 | 0.00 | 0.00 | 24 | 1012.1 |
| 20260508091033 | 21 | 147 | 0.0 | 3.2 | 0.00 | 0.00 | 0.00 | 24 | 1012.0 |
| 20260508090531 | 20 | 142 | 6.4 | 6.4 | 0.00 | 0.00 | 0.00 | 26 | 1012.1 |
| 20260508090027 | 20 | 122 | 6.4 | 8.0 | 0.00 | 0.00 | 0.00 | 26 | 1012.1 |
| 20260508085524 | 20 | 159 | 4.8 | 6.4 | 0.00 | 0.00 | 0.00 | 25 | 1012.2 |
| 20260508085021 | 20 | 145 | 6.4 | 8.0 | 0.00 | 0.00 | 0.00 | 24 | 1012.1 |
| 20260508084518 | 20 | 136 | 11.3 | 11.3 | 0.00 | 0.00 | 0.00 | 25 | 1011.9 |
| 20260508084015 | 21 | 154 | 8.0 | 8.0 | 0.00 | 0.00 | 0.00 | 22 | 1012.1 |
| 20260508083512 | 21 | 148 | 6.4 | 6.4 | 0.00 | 0.00 | 0.00 | 20 | 1012.2 |
| 20260508083009 | 21 | 140 | 8.0 | 9.7 | 0.00 | 0.00 | 0.00 | 20 | 1012.2 |
| 20260508082504 | 22 | 144 | 6.4 | 8.0 | 0.00 | 0.00 | 0.00 | 20 | 1012.3 |
| 20260508082002 | 22 | 150 | 8.0 | 8.0 | 0.00 | 0.00 | 0.00 | 19 | 1012.2 |
| 20260508081459 | 22 | 129 | 4.8 | 4.8 | 0.00 | 0.00 | 0.00 | 18 | 1012.4 |
| 20260508080955 | 21 | 150 | 6.4 | 8.0 | 0.00 | 0.00 | 0.00 | 18 | 1012.3 |
| 20260508080454 | 21 | 138 | 4.8 | 6.4 | 0.00 | 0.00 | 0.00 | 18 | 1012.5 |
| 20260508075951 | 21 | 132 | 3.2 | 3.2 | 0.00 | 0.00 | 0.00 | 18 | 1012.7 |
| 20260508075448 | 22 | 132 | 4.8 | 6.4 | 0.00 | 0.00 | 0.00 | 17 | 1012.5 |
| 20260508074945 | 23 | 157 | 6.4 | 6.4 | 0.00 | 0.00 | 0.00 | 17 | 1012.4 |
| 20260508074443 | 23 | 158 | 8.0 | 8.0 | 0.00 | 0.00 | 0.00 | 18 | 1012.4 |
| 20260508073939 | 24 | 185 | 4.8 | 6.4 | 0.00 | 0.00 | 0.00 | 17 | 1012.2 |
| 20260508073437 | 25 | 252 | 3.2 | 4.8 | 0.00 | 0.00 | 0.00 | 17 | 1012.3 |
| 20260508072933 | 25 | 254 | 1.6 | 3.2 | 0.00 | 0.00 | 0.00 | 17 | 1012.3 |
| 20260508072429 | 25 | 218 | 1.6 | 3.2 | 0.00 | 0.00 | 0.00 | 17 | 1012.4 |
| 20260508071927 | 25 | 198 | 3.2 | 4.8 | 0.00 | 0.00 | 0.00 | 17 | 1012.4 |
| 20260508071425 | 25 | 176 | 4.8 | 6.4 | 0.00 | 0.00 | 0.00 | 17 | 1012.2 |
| 20260508070922 | 24 | 212 | 1.6 | 3.2 | 0.00 | 0.00 | 0.00 | 17 | 1012.5 |
| 20260508070420 | 25 | 213 | 0.0 | 3.2 | 0.00 | 0.00 | 0.00 | 17 | 1012.5 |
| 20260508065918 | 25 | 278 | 3.2 | 4.8 | 0.00 | 0.00 | 0.00 | 17 | 1012.2 |
| 20260508065415 | 25 | 257 | 4.8 | 6.4 | 0.00 | 0.00 | 0.00 | 17 | 1012.3 |
| 20260508064914 | 25 | 261 | 4.8 | 6.4 | 0.00 | 0.00 | 0.00 | 16 | 1012.3 |
| 20260508064410 | 24 | 248 | 3.2 | 4.8 | 0.00 | 0.00 | 0.00 | 16 | 1012.5 |
| 20260508063908 | 25 | 267 | 3.2 | 8.0 | 0.00 | 0.00 | 0.00 | 16 | 1012.3 |
| 20260508063406 | 25 | 273 | 9.7 | 11.3 | 0.00 | 0.00 | 0.00 | 16 | 1012.3 |
| 20260508062903 | 25 | 268 | 8.0 | 9.7 | 0.00 | 0.00 | 0.00 | 15 | 1012.3 |
| 20260508062400 | 25 | 272 | 9.7 | 11.3 | 0.00 | 0.00 | 0.00 | 15 | 1012.4 |
| 20260508061857 | 25 | 262 | 4.8 | 6.4 | 0.00 | 0.00 | 0.00 | 14 | 1012.4 |
| 20260508061354 | 25 | 280 | 4.8 | 6.4 | 0.00 | 0.00 | 0.00 | 14 | 1012.4 |
| 20260508060851 | 24 | 261 | 4.8 | 4.8 | 0.00 | 0.00 | 0.00 | 15 | 1012.3 |
| 20260508060344 | 24 | 255 | 3.2 | 3.2 | 0.00 | 0.00 | 0.00 | 14 | 1012.4 |
| 20260508055843 | 24 | 247 | 3.2 | 3.2 | 0.00 | 0.00 | 0.00 | 15 | 1012.4 |
| 20260508055341 | 23 | 226 | 1.6 | 3.2 | 0.00 | 0.00 | 0.00 | 15 | 1012.4 |
| 20260508054837 | 23 | 179 | 1.6 | 3.2 | 0.00 | 0.00 | 0.00 | 15 | 1012.5 |
| 20260508054335 | 23 | 136 | 1.6 | 1.6 | 0.00 | 0.00 | 0.00 | 15 | 1012.3 |
| 20260508053832 | 22 | 96 | 0.0 | 3.2 | 0.00 | 0.00 | 0.00 | 15 | 1012.4 |
| 20260508053329 | 22 | 46 | 1.6 | 3.2 | 0.00 | 0.00 | 0.00 | 15 | 1012.3 |
| 20260508052826 | 23 | 343 | 0.0 | 1.6 | 0.00 | 0.00 | 0.00 | 14 | 1012.3 |
| 20260508052324 | 23 | 262 | 3.2 | 3.2 | 0.00 | 0.00 | 0.00 | 15 | 1012.3 |
| 20260508051820 | 23 | 344 | 3.2 | 3.2 | 0.00 | 0.00 | 0.00 | 14 | 1012.4 |
| 20260508051315 | 23 | 341 | 3.2 | 3.2 | 0.00 | 0.00 | 0.00 | 14 | 1012.2 |
| 20260508050812 | 24 | 271 | 4.8 | 4.8 | 0.00 | 0.00 | 0.00 | 14 | 1012.4 |
| 20260508050309 | 24 | 267 | 1.6 | 3.2 | 0.00 | 0.00 | 0.00 | 14 | 1012.2 |
| 20260508045805 | 24 | 259 | 1.6 | 3.2 | 0.00 | 0.00 | 0.00 | 14 | 1012.2 |
| 20260508045306 | 25 | 269 | 0.0 | 0.0 | 0.00 | 0.00 | 0.00 | 14 | 1012.2 |
| 20260508044800 | 25 | 331 | 1.6 | 3.2 | 0.00 | 0.00 | 0.00 | 14 | 1012.1 |
| 20260508044256 | 25 | 348 | 0.0 | 3.2 | 0.00 | 0.00 | 0.00 | 14 | 1012.2 |
| 20260508043753 | 25 | 41 | 3.2 | 3.2 | 0.00 | 0.00 | 0.00 | 14 | 1012.2 |
| 20260508043250 | 24 | 57 | 1.6 | 3.2 | 0.00 | 0.00 | 0.00 | 13 | 1012.0 |
| 20260508042746 | 25 | 72 | 0.0 | 3.2 | 0.00 | 0.00 | 0.00 | 13 | 1012.0 |
| 20260508042244 | 26 | 231 | 1.6 | 3.2 | 0.00 | 0.00 | 0.00 | 13 | 1011.7 |
| 20260508041741 | 26 | 233 | 3.2 | 3.2 | 0.00 | 0.00 | 0.00 | 13 | 1011.8 |
| 20260508041237 | 27 | 239 | 4.8 | 6.4 | 0.00 | 0.00 | 0.00 | 13 | 1011.7 |
| 20260508040734 | 27 | 231 | 4.8 | 8.0 | 0.00 | 0.00 | 0.00 | 13 | 1011.9 |
| 20260508040231 | 27 | 238 | 6.4 | 8.0 | 0.00 | 0.00 | 0.00 | 13 | 1011.8 |
| 20260508035728 | 27 | 238 | 8.0 | 9.7 | 0.00 | 0.00 | 0.00 | 13 | 1011.7 |
| 20260508035226 | 26 | 235 | 6.4 | 8.0 | 0.00 | 0.00 | 0.00 | 13 | 1011.7 |
| 20260508034722 | 26 | 235 | 6.4 | 8.0 | 0.00 | 0.00 | 0.00 | 12 | 1011.5 |
| 20260508034220 | 26 | 241 | 6.4 | 8.0 | 0.00 | 0.00 | 0.00 | 12 | 1011.7 |
| 20260508033717 | 27 | 231 | 6.4 | 8.0 | 0.00 | 0.00 | 0.00 | 12 | 1011.3 |
| 20260508033216 | 27 | 243 | 6.4 | 8.0 | 0.00 | 0.00 | 0.00 | 11 | 1011.6 |
| 20260508032713 | 28 | 249 | 6.4 | 9.7 | 0.00 | 0.00 | 0.00 | 11 | 1011.4 |
| 20260508032209 | 28 | 260 | 9.7 | 12.9 | 0.00 | 0.00 | 0.00 | 11 | 1011.4 |
| 20260508031706 | 28 | 254 | 14.5 | 17.7 | 0.00 | 0.00 | 0.00 | 11 | 1011.4 |
| 20260508031202 | 28 | 244 | 6.4 | 8.0 | 0.00 | 0.00 | 0.00 | 11 | 1011.3 |
| 20260508030658 | 28 | 244 | 6.4 | 6.4 | 0.00 | 0.00 | 0.00 | 11 | 1011.2 |
| 20260508030156 | 29 | 251 | 6.4 | 8.0 | 0.00 | 0.00 | 0.00 | 11 | 1011.0 |
| 20260508025652 | 30 | 255 | 6.4 | 8.0 | 0.00 | 0.00 | 0.00 | 11 | 1011.2 |
| 20260508025149 | 30 | 265 | 6.4 | 6.4 | 0.00 | 0.00 | 0.00 | 11 | 1010.9 |
| 20260508024645 | 30 | 263 | 6.4 | 6.4 | 0.00 | 0.00 | 0.00 | 10 | 1010.8 |
| 20260508024143 | 30 | 272 | 6.4 | 6.4 | 0.00 | 0.00 | 0.00 | 10 | 1010.9 |
| 20260508023639 | 30 | 260 | 6.4 | 6.4 | 0.00 | 0.00 | 0.00 | 10 | 1010.8 |
| 20260508023137 | 30 | 256 | 4.8 | 6.4 | 0.00 | 0.00 | 0.00 | 10 | 1010.7 |
| 20260508022632 | 31 | 272 | 6.4 | 6.4 | 0.00 | 0.00 | 0.00 | 10 | 1010.7 |
| 20260508022129 | 31 | 283 | 8.0 | 8.0 | 0.00 | 0.00 | 0.00 | 10 | 1010.6 |
| 20260508021625 | 31 | 282 | 8.0 | 11.3 | 0.00 | 0.00 | 0.00 | 10 | 1010.6 |
| 20260508021121 | 31 | 278 | 8.0 | 12.9 | 0.00 | 0.00 | 0.00 | 10 | 1010.5 |
| 20260508020619 | 31 | 262 | 6.4 | 11.3 | 0.00 | 0.00 | 0.00 | 9 | 1010.3 |
| 20260508020117 | 32 | 278 | 9.7 | 9.7 | 0.00 | 0.00 | 0.00 | 9 | 1010.5 |
| 20260508015614 | 32 | 279 | 9.7 | 14.5 | 0.00 | 0.00 | 0.00 | 9 | 1010.5 |
| 20260508015111 | 32 | 276 | 6.4 | 11.3 | 0.00 | 0.00 | 0.00 | 9 | 1010.3 |
| 20260508014607 | 32 | 279 | 11.3 | 12.9 | 0.00 | 0.00 | 0.00 | 9 | 1010.3 |
| 20260508014103 | 33 | 299 | 11.3 | 14.5 | 0.00 | 0.00 | 0.00 | 9 | 1010.4 |
| 20260508013559 | 33 | 257 | 6.4 | 9.7 | 0.00 | 0.00 | 0.00 | 8 | 1010.3 |
| 20260508013057 | 33 | 241 | 9.7 | 11.3 | 0.00 | 0.00 | 0.00 | 8 | 1010.4 |
| 20260508012554 | 33 | 268 | 6.4 | 9.7 | 0.00 | 0.00 | 0.00 | 8 | 1010.2 |
| 20260508012051 | 33 | 297 | 12.9 | 14.5 | 0.00 | 0.00 | 0.00 | 8 | 1010.1 |
| 20260508011549 | 33 | 284 | 9.7 | 17.7 | 0.00 | 0.00 | 0.00 | 8 | 1010.2 |
| 20260508011046 | 33 | 310 | 9.7 | 11.3 | 0.00 | 0.00 | 0.00 | 8 | 1010.4 |
| 20260508010543 | 33 | 298 | 8.0 | 16.1 | 0.00 | 0.00 | 0.00 | 8 | 1010.1 |
| 20260508010041 | 33 | 269 | 8.0 | 17.7 | 0.00 | 0.00 | 0.00 | 8 | 1010.1 |
| 20260508005537 | 33 | 200 | 8.0 | 11.3 | 0.00 | 0.00 | 0.00 | 8 | 1010.3 |
| 20260508005034 | 33 | 257 | 6.4 | 12.9 | 0.00 | 0.00 | 0.00 | 8 | 1010.3 |
| 20260508004530 | 33 | 262 | 4.8 | 11.3 | 0.00 | 0.00 | 0.00 | 8 | 1010.1 |
| 20260508004027 | 34 | 119 | 1.6 | 4.8 | 0.00 | 0.00 | 0.00 | 8 | 1010.3 |
| 20260508003523 | 34 | 257 | 6.4 | 8.0 | 0.00 | 0.00 | 0.00 | 7 | 1010.2 |
| 20260508003021 | 34 | 190 | 4.8 | 4.8 | 0.00 | 0.00 | 0.00 | 7 | 1010.1 |
| 20260508002517 | 34 | 241 | 9.7 | 14.5 | 0.00 | 0.00 | 0.00 | 8 | 1010.2 |
| 20260508002015 | 34 | 297 | 12.9 | 17.7 | 0.00 | 0.00 | 0.00 | 7 | 1010.2 |
| 20260508001510 | 34 | 281 | 9.7 | 17.7 | 0.00 | 0.00 | 0.00 | 7 | 1009.9 |
| 20260508001006 | 35 | 256 | 3.2 | 8.0 | 0.00 | 0.00 | 0.00 | 7 | 1010.1 |
| 20260508000502 | 34 | 153 | 4.8 | 8.0 | 0.00 | 0.00 | 0.00 | 7 | 1009.9 |
| 20260507235959 | 34 | 238 | 1.6 | 4.8 | 0.00 | 0.00 | 0.00 | 7 | 1010.2 |
| 20260507235456 | 34 | 253 | 9.7 | 12.9 | 0.00 | 0.00 | 0.00 | 7 | 1010.1 |
| 20260507234954 | 34 | 300 | 9.7 | 17.7 | 0.00 | 0.00 | 0.00 | 7 | 1010.1 |
| 20260507234450 | 35 | 294 | 9.7 | 14.5 | 0.00 | 0.00 | 0.00 | 7 | 1010.2 |
| 20260507233946 | 35 | 336 | 6.4 | 9.7 | 0.00 | 0.00 | 0.00 | 7 | 1010.3 |
| 20260507233443 | 34 | 212 | 6.4 | 9.7 | 0.00 | 0.00 | 0.00 | 8 | 1010.1 |
| 20260507232942 | 33 | 102 | 4.8 | 6.4 | 0.00 | 0.00 | 0.00 | 8 | 1010.3 |
| 20260507232438 | 33 | 103 | 9.7 | 14.5 | 0.00 | 0.00 | 0.00 | 8 | 1010.2 |
| 20260507231935 | 33 | 19 | 4.8 | 17.7 | 0.00 | 0.00 | 0.00 | 8 | 1010.4 |
| 20260507231431 | 33 | 298 | 11.3 | 14.5 | 0.00 | 0.00 | 0.00 | 8 | 1010.2 |
| 20260507230928 | 33 | 76 | 6.4 | 14.5 | 0.00 | 0.00 | 0.00 | 8 | 1010.3 |
| 20260507230426 | 33 | 57 | 11.3 | 16.1 | 0.00 | 0.00 | 0.00 | 8 | 1010.3 |
| 20260507225926 | 33 | 58 | 6.4 | 14.5 | 0.00 | 0.00 | 0.00 | 8 | 1010.2 |
| 20260507225422 | 33 | 7 | 11.3 | 19.3 | 0.00 | 0.00 | 0.00 | 8 | 1010.4 |
| 20260507224919 | 33 | 8 | 11.3 | 12.9 | 0.00 | 0.00 | 0.00 | 8 | 1010.4 |
| 20260507224414 | 33 | 109 | 11.3 | 19.3 | 0.00 | 0.00 | 0.00 | 9 | 1010.5 |
| 20260507223911 | 33 | 89 | 11.3 | 14.5 | 0.00 | 0.00 | 0.00 | 8 | 1010.7 |
| 20260507223407 | 35 | 74 | 8.0 | 9.7 | 0.00 | 0.00 | 0.00 | 8 | 1010.6 |
| 20260507222905 | 34 | 306 | 3.2 | 6.4 | 0.00 | 0.00 | 0.00 | 9 | 1010.6 |
| 20260507222401 | 34 | 209 | 6.4 | 12.9 | 0.00 | 0.00 | 0.00 | 9 | 1010.5 |
| 20260507221858 | 33 | 116 | 6.4 | 8.0 | 0.00 | 0.00 | 0.00 | 9 | 1010.7 |
| 20260507221354 | 33 | 147 | 4.8 | 8.0 | 0.00 | 0.00 | 0.00 | 9 | 1011.0 |
| 20260507220851 | 33 | 115 | 11.3 | 20.9 | 0.00 | 0.00 | 0.00 | 9 | 1010.9 |
| 20260507220349 | 33 | 127 | 4.8 | 6.4 | 0.00 | 0.00 | 0.00 | 9 | 1011.2 |
| 20260507215845 | 33 | 82 | 4.8 | 6.4 | 0.00 | 0.00 | 0.00 | 9 | 1011.0 |
| 20260507215342 | 33 | 213 | 9.7 | 14.5 | 0.00 | 0.00 | 0.00 | 9 | 1011.1 |
| 20260507214839 | 33 | 163 | 11.3 | 14.5 | 0.00 | 0.00 | 0.00 | 9 | 1011.0 |
| 20260507214337 | 33 | 159 | 17.7 | 17.7 | 0.00 | 0.00 | 0.00 | 9 | 1011.2 |
| 20260507213831 | 34 | 135 | 6.4 | 16.1 | 0.00 | 0.00 | 0.00 | 9 | 1011.2 |
| 20260507213329 | 33 | 185 | 4.8 | 6.4 | 0.00 | 0.00 | 0.00 | 9 | 1011.3 |
| 20260507212825 | 33 | 22 | 6.4 | 8.0 | 0.00 | 0.00 | 0.00 | 9 | 1011.5 |
| 20260507212321 | 32 | 116 | 6.4 | 14.5 | 0.00 | 0.00 | 0.00 | 9 | 1011.4 |
| 20260507211818 | 33 | 102 | 9.7 | 11.3 | 0.00 | 0.00 | 0.00 | 9 | 1011.5 |
| 20260507211315 | 32 | 240 | 6.4 | 6.4 | 0.00 | 0.00 | 0.00 | 9 | 1011.6 |
| 20260507210812 | 32 | 87 | 9.7 | 17.7 | 0.00 | 0.00 | 0.00 | 9 | 1011.8 |
| 20260507210308 | 33 | 19 | 16.1 | 17.7 | 0.00 | 0.00 | 0.00 | 9 | 1012.0 |
| 20260507205804 | 33 | 314 | 9.7 | 11.3 | 0.00 | 0.00 | 0.00 | 10 | 1012.0 |
| 20260507205306 | 32 | 313 | 4.8 | 14.5 | 0.00 | 0.00 | 0.00 | 10 | 1012.0 |
| 20260507204758 | 32 | 343 | 9.7 | 16.1 | 0.00 | 0.00 | 0.00 | 10 | 1012.0 |
| 20260507204256 | 32 | 4 | 8.0 | 14.5 | 0.00 | 0.00 | 0.00 | 10 | 1012.3 |
| 20260507203753 | 32 | 350 | 14.5 | 17.7 | 0.00 | 0.00 | 0.00 | 10 | 1012.3 |
| 20260507203251 | 32 | 10 | 12.9 | 22.5 | 0.00 | 0.00 | 0.00 | 10 | 1012.3 |
| 20260507202747 | 32 | 112 | 8.0 | 14.5 | 0.00 | 0.00 | 0.00 | 10 | 1012.3 |
| 20260507202243 | 32 | 153 | 4.8 | 6.4 | 0.00 | 0.00 | 0.00 | 12 | 1012.5 |
| 20260507201738 | 32 | 271 | 4.8 | 9.7 | 0.00 | 0.00 | 0.00 | 12 | 1012.7 |
| 20260507201235 | 32 | 115 | 3.2 | 12.9 | 0.00 | 0.00 | 0.00 | 12 | 1012.7 |
| 20260507200731 | 32 | 165 | 1.6 | 6.4 | 0.00 | 0.00 | 0.00 | 12 | 1012.9 |
| 20260507200227 | 31 | 207 | 8.0 | 9.7 | 0.00 | 0.00 | 0.00 | 12 | 1012.9 |
| 20260507195724 | 32 | 116 | 12.9 | 17.7 | 0.00 | 0.00 | 0.00 | 12 | 1012.8 |
| 20260507195222 | 31 | 123 | 1.6 | 9.7 | 0.00 | 0.00 | 0.00 | 13 | 1013.0 |
| 20260507194719 | 31 | 135 | 11.3 | 16.1 | 0.00 | 0.00 | 0.00 | 13 | 1013.0 |
| 20260507194215 | 31 | 158 | 9.7 | 11.3 | 0.00 | 0.00 | 0.00 | 13 | 1013.1 |
| 20260507193711 | 31 | 158 | 8.0 | 16.1 | 0.00 | 0.00 | 0.00 | 13 | 1013.1 |
| 20260507193208 | 31 | 335 | 0.0 | 9.7 | 0.00 | 0.00 | 0.00 | 13 | 1013.2 |
| 20260507192704 | 31 | 67 | 8.0 | 14.5 | 0.00 | 0.00 | 0.00 | 13 | 1013.5 |
| 20260507192201 | 31 | 68 | 4.8 | 6.4 | 0.00 | 0.00 | 0.00 | 14 | 1013.7 |
| 20260507191656 | 30 | 351 | 4.8 | 8.0 | 0.00 | 0.00 | 0.00 | 14 | 1013.6 |
| 20260507191154 | 30 | 42 | 6.4 | 12.9 | 0.00 | 0.00 | 0.00 | 14 | 1013.5 |
| 20260507190651 | 31 | 33 | 16.1 | 24.1 | 0.00 | 0.00 | 0.00 | 13 | 1013.9 |
| 20260507190150 | 30 | 53 | 6.4 | 8.0 | 0.00 | 0.00 | 0.00 | 14 | 1013.8 |
| 20260507185647 | 30 | 5 | 9.7 | 16.1 | 0.00 | 0.00 | 0.00 | 15 | 1013.8 |
| 20260507185144 | 30 | 66 | 6.4 | 9.7 | 0.00 | 0.00 | 0.00 | 15 | 1013.9 |
| 20260507184642 | 30 | 28 | 8.0 | 11.3 | 0.00 | 0.00 | 0.00 | 15 | 1014.0 |
| 20260507184140 | 30 | 69 | 9.7 | 17.7 | 0.00 | 0.00 | 0.00 | 15 | 1014.0 |
| 20260507183635 | 30 | 38 | 3.2 | 8.0 | 0.00 | 0.00 | 0.00 | 15 | 1014.1 |
| 20260507183132 | 30 | 35 | 8.0 | 9.7 | 0.00 | 0.00 | 0.00 | 15 | 1014.2 |
| 20260507182629 | 29 | 55 | 6.4 | 11.3 | 0.00 | 0.00 | 0.00 | 15 | 1014.3 |
| 20260507182125 | 29 | 21 | 11.3 | 12.9 | 0.00 | 0.00 | 0.00 | 16 | 1014.4 |
| 20260507181622 | 29 | 340 | 6.4 | 16.1 | 0.00 | 0.00 | 0.00 | 17 | 1014.5 |
| 20260507181118 | 29 | 353 | 9.7 | 12.9 | 0.00 | 0.00 | 0.00 | 17 | 1014.4 |
| 20260507180614 | 29 | 351 | 9.7 | 16.1 | 0.00 | 0.00 | 0.00 | 16 | 1014.4 |
| 20260507180112 | 29 | 23 | 4.8 | 11.3 | 0.00 | 0.00 | 0.00 | 17 | 1014.5 |
| 20260507175608 | 29 | 56 | 3.2 | 9.7 | 0.00 | 0.00 | 0.00 | 17 | 1014.5 |
| 20260507175105 | 28 | 1 | 8.0 | 16.1 | 0.00 | 0.00 | 0.00 | 17 | 1014.6 |
| 20260507174602 | 28 | 16 | 11.3 | 16.1 | 0.00 | 0.00 | 0.00 | 17 | 1014.7 |
| 20260507174100 | 28 | 62 | 0.0 | 4.8 | 0.00 | 0.00 | 0.00 | 17 | 1014.6 |
| 20260507173557 | 28 | 30 | 11.3 | 19.3 | 0.00 | 0.00 | 0.00 | 18 | 1014.8 |
| 20260507173054 | 28 | 104 | 6.4 | 9.7 | 0.00 | 0.00 | 0.00 | 17 | 1014.7 |
| 20260507172550 | 28 | 48 | 16.1 | 22.5 | 0.00 | 0.00 | 0.00 | 18 | 1014.5 |
| 20260507172047 | 28 | 6 | 8.0 | 14.5 | 0.00 | 0.00 | 0.00 | 18 | 1014.7 |
| 20260507171542 | 28 | 62 | 6.4 | 17.7 | 0.00 | 0.00 | 0.00 | 18 | 1014.9 |
| 20260507171039 | 28 | 56 | 16.1 | 22.5 | 0.00 | 0.00 | 0.00 | 18 | 1014.7 |
| 20260507170536 | 28 | 66 | 14.5 | 20.9 | 0.00 | 0.00 | 0.00 | 18 | 1014.8 |
| 20260507170033 | 28 | 62 | 12.9 | 16.1 | 0.00 | 0.00 | 0.00 | 18 | 1014.7 |
| 20260507165529 | 28 | 28 | 6.4 | 9.7 | 0.00 | 0.00 | 0.00 | 18 | 1014.8 |
| 20260507165026 | 27 | 6 | 8.0 | 20.9 | 0.00 | 0.00 | 0.00 | 18 | 1014.6 |
| 20260507164522 | 27 | 64 | 17.7 | 19.3 | 0.00 | 0.00 | 0.00 | 18 | 1014.8 |
| 20260507164019 | 27 | 52 | 11.3 | 19.3 | 0.00 | 0.00 | 0.00 | 18 | 1014.8 |
| 20260507163516 | 27 | 56 | 16.1 | 22.5 | 0.00 | 0.00 | 0.00 | 19 | 1014.9 |
| 20260507163014 | 27 | 50 | 20.9 | 20.9 | 0.00 | 0.00 | 0.00 | 19 | 1014.8 |
| 20260507162509 | 26 | 71 | 16.1 | 17.7 | 0.00 | 0.00 | 0.00 | 19 | 1014.8 |
| 20260507162006 | 26 | 59 | 9.7 | 14.5 | 0.00 | 0.00 | 0.00 | 20 | 1014.9 |
| 20260507161502 | 26 | 21 | 9.7 | 17.7 | 0.00 | 0.00 | 0.00 | 20 | 1015.0 |
| 20260507160959 | 26 | 51 | 14.5 | 16.1 | 0.00 | 0.00 | 0.00 | 20 | 1015.1 |
| 20260507160455 | 25 | 58 | 3.2 | 11.3 | 0.00 | 0.00 | 0.00 | 20 | 1015.1 |
| 20260507155950 | 25 | 39 | 9.7 | 14.5 | 0.00 | 0.00 | 0.00 | 20 | 1015.2 |
| 20260507155447 | 26 | 77 | 14.5 | 16.1 | 0.00 | 0.00 | 0.00 | 19 | 1015.2 |
| 20260507154944 | 26 | 22 | 1.6 | 6.4 | 0.00 | 0.00 | 0.00 | 19 | 1015.2 |
| 20260507154440 | 26 | 166 | 0.0 | 4.8 | 0.00 | 0.00 | 0.00 | 19 | 1015.5 |
| 20260507153938 | 26 | 115 | 4.8 | 8.0 | 0.00 | 0.00 | 0.00 | 19 | 1015.5 |
| 20260507153435 | 25 | 328 | 3.2 | 6.4 | 0.00 | 0.00 | 0.00 | 19 | 1015.4 |
| 20260507152931 | 25 | 321 | 4.8 | 6.4 | 0.00 | 0.00 | 0.00 | 19 | 1015.2 |
| 20260507152427 | 26 | 248 | 6.4 | 6.4 | 0.00 | 0.00 | 0.00 | 18 | 1015.2 |
| 20260507151923 | 26 | 134 | 3.2 | 8.0 | 0.00 | 0.00 | 0.00 | 19 | 1015.2 |
| 20260507151420 | 25 | 236 | 1.6 | 3.2 | 0.00 | 0.00 | 0.00 | 18 | 1015.5 |
| 20260507150917 | 24 | 314 | 0.0 | 3.2 | 0.00 | 0.00 | 0.00 | 19 | 1015.4 |
| 20260507150413 | 23 | 152 | 1.6 | 8.0 | 0.00 | 0.00 | 0.00 | 20 | 1015.5 |
| 20260507145910 | 23 | 189 | 8.0 | 9.7 | 0.00 | 0.00 | 0.00 | 21 | 1015.2 |
| 20260507145406 | 23 | 138 | 8.0 | 9.7 | 0.00 | 0.00 | 0.00 | 21 | 1015.2 |
| 20260507144903 | 23 | 127 | 3.2 | 6.4 | 0.00 | 0.00 | 0.00 | 20 | 1015.4 |
| 20260507144400 | 23 | 139 | 6.4 | 6.4 | 0.00 | 0.00 | 0.00 | 20 | 1015.4 |
| 20260507143857 | 23 | 88 | 3.2 | 3.2 | 0.00 | 0.00 | 0.00 | 21 | 1015.5 |
| 20260507143354 | 22 | 46 | 4.8 | 4.8 | 0.00 | 0.00 | 0.00 | 21 | 1015.4 |